createdAt,value
2023-08-21T00:00:15.610Z,71.44
2023-08-21T00:02:42.796Z,71.09
2023-08-21T00:05:10.284Z,71.05
2023-08-21T00:07:37.160Z,70.90
2023-08-21T00:10:04.644Z,70.82
2023-08-21T00:12:31.501Z,70.78
2023-08-21T00:14:59.546Z,71.56
2023-08-21T00:17:26.442Z,72.39
2023-08-21T00:19:53.340Z,72.78
2023-08-21T00:22:20.214Z,73.00
2023-08-21T00:24:47.177Z,73.02
2023-08-21T00:27:14.033Z,72.68
2023-08-21T00:29:40.964Z,72.65
2023-08-21T00:32:07.837Z,72.54
2023-08-21T00:34:34.706Z,72.97
2023-08-21T00:37:01.660Z,73.13
2023-08-21T00:39:28.526Z,73.46
2023-08-21T00:41:55.881Z,74.25
2023-08-21T00:44:22.733Z,74.22
2023-08-21T00:46:49.692Z,73.87
2023-08-21T00:49:16.600Z,74.74
2023-08-21T00:51:43.544Z,74.37
2023-08-21T00:54:10.961Z,73.87
2023-08-21T00:56:38.017Z,73.66
2023-08-21T00:59:05.053Z,73.86
2023-08-21T01:01:32.456Z,73.81
2023-08-21T01:03:59.364Z,73.55
2023-08-21T01:06:26.302Z,74.03
2023-08-21T01:09:06.993Z,73.55
2023-08-21T01:12:06.364Z,73.28
2023-08-21T01:14:46.507Z,73.41
2023-08-21T01:17:15.586Z,74.02
2023-08-21T01:19:46.737Z,73.98
2023-08-21T01:22:13.648Z,73.71
2023-08-21T01:24:40.564Z,73.24
2023-08-21T01:27:07.710Z,73.87
2023-08-21T01:29:35.296Z,73.65
2023-08-21T01:32:29.806Z,73.80
2023-08-21T01:34:59.329Z,74.11
2023-08-21T01:37:27.849Z,73.66
2023-08-21T01:39:54.688Z,72.82
2023-08-21T01:42:21.555Z,72.10
2023-08-21T01:44:48.466Z,71.98
2023-08-21T01:47:15.328Z,71.82
2023-08-21T01:49:42.198Z,71.14
2023-08-21T01:52:09.113Z,71.24
2023-08-21T01:54:37.259Z,70.87
2023-08-21T01:57:04.663Z,70.66
2023-08-21T01:59:31.620Z,70.18
2023-08-21T02:01:58.578Z,70.34
2023-08-21T02:04:25.424Z,70.55
2023-08-21T02:06:52.271Z,70.37
2023-08-21T02:09:19.152Z,70.95
2023-08-21T02:11:45.994Z,71.55
2023-08-21T02:14:12.852Z,71.76
2023-08-21T02:16:39.781Z,71.59
2023-08-21T02:19:06.646Z,71.22
2023-08-21T02:21:35.417Z,71.07
2023-08-21T02:24:02.282Z,71.48
2023-08-21T02:26:29.163Z,72.25
2023-08-21T02:28:56.041Z,72.26
2023-08-21T02:31:22.981Z,72.83
2023-08-21T02:33:51.031Z,73.01
2023-08-21T02:36:17.993Z,72.89
2023-08-21T02:38:44.855Z,73.26
2023-08-21T02:41:11.720Z,73.37
2023-08-21T02:43:38.820Z,73.67
2023-08-21T02:46:05.697Z,73.51
2023-08-21T02:48:32.601Z,73.91
2023-08-21T02:50:59.532Z,74.18
2023-08-21T02:53:26.375Z,74.21
2023-08-21T02:55:53.242Z,73.93
2023-08-21T02:58:20.079Z,74.26
2023-08-21T03:00:46.961Z,74.10
2023-08-21T03:03:14.095Z,74.80
2023-08-21T03:05:41.051Z,74.85
2023-08-21T03:08:08.015Z,74.80
2023-08-21T03:10:35.461Z,75.20
2023-08-21T03:13:02.366Z,75.31
2023-08-21T03:15:30.024Z,75.05
2023-08-21T03:17:57.120Z,74.28
2023-08-21T03:20:24.004Z,73.98
2023-08-21T03:22:51.592Z,73.59
2023-08-21T03:25:18.532Z,73.56
2023-08-21T03:27:50.149Z,73.87
2023-08-21T03:30:17.720Z,73.88
2023-08-21T03:32:44.693Z,73.84
2023-08-21T03:35:11.680Z,73.83
2023-08-21T03:37:38.628Z,74.15
2023-08-21T03:40:06.170Z,73.73
2023-08-21T03:42:33.035Z,73.93
2023-08-21T03:44:59.883Z,73.88
2023-08-21T03:47:26.807Z,73.98
2023-08-21T03:49:53.718Z,73.75
2023-08-21T03:52:20.548Z,74.37
2023-08-21T03:54:47.398Z,74.92
2023-08-21T03:57:14.294Z,75.23
2023-08-21T03:59:41.128Z,75.72
2023-08-21T04:02:07.964Z,75.94
2023-08-21T04:04:34.838Z,76.42
2023-08-21T04:07:01.664Z,76.65
2023-08-21T04:09:28.535Z,76.69
2023-08-21T04:11:55.384Z,76.98
2023-08-21T04:14:22.227Z,77.35
2023-08-21T04:16:49.115Z,77.52
2023-08-21T04:19:15.951Z,77.57
2023-08-21T04:21:42.829Z,77.46
2023-08-21T04:24:09.719Z,77.05
2023-08-21T04:26:36.593Z,76.96
2023-08-21T04:29:03.454Z,76.88
2023-08-21T04:31:30.366Z,76.91
2023-08-21T04:33:57.316Z,77.30
2023-08-21T04:36:24.155Z,77.34
2023-08-21T04:38:50.987Z,76.75
2023-08-21T04:41:17.893Z,76.50
2023-08-21T04:43:44.755Z,75.98
2023-08-21T04:46:11.692Z,75.56
2023-08-21T04:48:38.585Z,75.54
2023-08-21T04:51:05.597Z,75.43
2023-08-21T04:53:32.465Z,75.12
2023-08-21T04:56:02.336Z,75.08
2023-08-21T04:58:29.274Z,74.11
2023-08-21T05:00:56.123Z,73.19
2023-08-21T05:03:23.157Z,73.47
2023-08-21T05:05:56.944Z,73.38
2023-08-21T05:08:26.616Z,73.35
2023-08-21T05:11:00.895Z,72.58
2023-08-21T05:13:28.100Z,72.25
2023-08-21T05:15:59.357Z,72.22
2023-08-21T05:18:27.090Z,71.88
2023-08-21T05:20:56.475Z,71.33
2023-08-21T05:23:23.606Z,71.62
2023-08-21T05:25:50.848Z,71.45
2023-08-21T05:28:17.809Z,71.51
2023-08-21T05:30:47.752Z,71.00
2023-08-21T05:33:14.659Z,70.74
2023-08-21T05:35:42.602Z,70.69
2023-08-21T05:38:09.544Z,69.55
2023-08-21T05:40:36.412Z,70.09
2023-08-21T05:43:03.405Z,70.40
2023-08-21T05:45:31.529Z,69.85
2023-08-21T05:47:58.411Z,69.44
2023-08-21T05:50:25.308Z,70.16
2023-08-21T05:52:52.168Z,69.72
2023-08-21T05:55:19.751Z,69.68
2023-08-21T05:57:46.649Z,69.91
2023-08-21T06:00:15.141Z,69.92
2023-08-21T06:02:43.197Z,69.46
2023-08-21T06:05:10.492Z,68.58
2023-08-21T06:07:37.503Z,67.54
2023-08-21T06:10:05.819Z,67.51
2023-08-21T06:12:32.676Z,66.71
2023-08-21T06:14:59.577Z,65.65
2023-08-21T06:17:28.734Z,65.45
2023-08-21T06:19:56.696Z,65.11
2023-08-21T06:22:23.534Z,64.60
2023-08-21T06:24:50.374Z,63.20
2023-08-21T06:27:17.300Z,64.57
2023-08-21T06:29:44.325Z,63.41
2023-08-21T06:32:11.208Z,62.08
2023-08-21T06:34:38.601Z,61.36
2023-08-21T06:37:05.524Z,60.03
2023-08-21T06:39:33.012Z,61.83
2023-08-21T06:42:01.398Z,61.75
2023-08-21T06:44:28.319Z,61.62
2023-08-21T06:46:55.254Z,64.47
2023-08-21T06:49:22.193Z,63.76
2023-08-21T06:51:49.093Z,62.28
2023-08-21T06:54:16.114Z,61.40
2023-08-21T06:56:42.994Z,60.47
2023-08-21T06:59:09.844Z,59.91
2023-08-21T07:01:36.892Z,58.17
2023-08-21T07:04:03.908Z,58.13
2023-08-21T07:06:31.871Z,57.80
2023-08-21T07:08:58.812Z,56.50
2023-08-21T07:11:25.724Z,57.24
2023-08-21T07:13:52.589Z,55.53
2023-08-21T07:16:19.525Z,54.89
2023-08-21T07:18:46.459Z,55.80
2023-08-21T07:21:27.100Z,54.79
2023-08-21T07:24:00.341Z,53.88
2023-08-21T07:26:27.272Z,53.49
2023-08-21T07:28:54.248Z,52.57
2023-08-21T07:31:21.326Z,52.18
2023-08-21T07:33:48.306Z,51.57
2023-08-21T07:36:18.305Z,52.55
2023-08-21T07:38:46.225Z,50.18
2023-08-21T07:41:14.199Z,51.86
2023-08-21T07:43:45.414Z,51.20
2023-08-21T07:46:19.443Z,50.09
2023-08-21T07:48:47.272Z,48.63
2023-08-21T07:51:14.575Z,50.17
2023-08-21T07:53:41.781Z,49.25
2023-08-21T07:56:09.328Z,48.33
2023-08-21T07:58:36.208Z,48.08
2023-08-21T08:01:03.866Z,47.87
2023-08-21T08:03:30.979Z,46.68
2023-08-21T08:05:58.075Z,46.77
2023-08-21T08:08:25.038Z,45.52
2023-08-21T08:10:51.969Z,46.07
2023-08-21T08:13:18.857Z,47.02
2023-08-21T08:15:45.703Z,47.59
2023-08-21T08:18:13.976Z,44.95
2023-08-21T08:20:41.516Z,44.15
2023-08-21T08:23:08.602Z,43.38
2023-08-21T08:25:35.547Z,43.51
2023-08-21T08:28:02.542Z,43.36
2023-08-21T08:30:30.032Z,43.92
2023-08-21T08:32:57.009Z,42.75
2023-08-21T08:35:24.082Z,40.65
2023-08-21T08:37:50.932Z,40.14
2023-08-21T08:40:17.949Z,40.94
2023-08-21T08:42:44.916Z,43.65
2023-08-21T08:45:14.983Z,43.20
2023-08-21T08:47:42.928Z,40.90
2023-08-21T08:50:10.915Z,40.26
2023-08-21T08:52:41.354Z,40.20
2023-08-21T08:55:09.286Z,40.72
2023-08-21T08:57:36.371Z,39.79
2023-08-21T09:00:07.059Z,39.33
2023-08-21T09:02:34.164Z,40.80
2023-08-21T09:05:01.228Z,39.61
2023-08-21T09:07:29.540Z,38.85
2023-08-21T09:09:56.699Z,40.13
2023-08-21T09:12:24.091Z,39.75
2023-08-21T09:14:51.021Z,39.81
2023-08-21T09:17:18.133Z,42.07
2023-08-21T09:19:45.475Z,42.27
2023-08-21T09:22:14.791Z,41.60
2023-08-21T09:24:43.511Z,41.42
2023-08-21T09:27:18.419Z,40.64
2023-08-21T09:29:47.607Z,41.05
2023-08-21T09:32:14.451Z,40.90
2023-08-21T09:34:41.316Z,42.41
2023-08-21T09:37:09.444Z,42.18
2023-08-21T09:39:37.661Z,40.55
2023-08-21T09:42:08.915Z,41.57
2023-08-21T09:44:40.733Z,41.36
2023-08-21T09:47:14.473Z,41.82
2023-08-21T09:49:41.482Z,42.30
2023-08-21T09:52:11.706Z,42.03
2023-08-21T09:54:39.924Z,41.16
2023-08-21T09:57:06.938Z,40.26
2023-08-21T09:59:34.239Z,41.47
2023-08-21T10:02:01.924Z,40.32
2023-08-21T10:04:33.434Z,38.84
2023-08-21T10:07:04.641Z,39.41
2023-08-21T10:09:32.270Z,38.02
2023-08-21T10:11:59.255Z,38.38
2023-08-21T10:14:27.444Z,36.31
2023-08-21T10:16:56.180Z,35.65
2023-08-21T10:19:23.079Z,37.51
2023-08-21T10:21:50.396Z,37.33
2023-08-21T10:24:37.626Z,36.98
2023-08-21T10:27:04.894Z,36.95
2023-08-21T10:29:34.531Z,36.13
2023-08-21T10:32:03.833Z,36.36
2023-08-21T10:34:36.744Z,33.30
2023-08-21T10:37:13.825Z,35.24
2023-08-21T10:40:00.784Z,33.41
2023-08-21T10:42:42.433Z,35.46
2023-08-21T10:45:14.053Z,34.61
2023-08-21T10:47:41.258Z,35.20
2023-08-21T10:50:09.779Z,35.33
2023-08-21T10:52:43.048Z,36.49
2023-08-21T10:55:10.832Z,35.17
2023-08-21T10:57:38.115Z,36.16
2023-08-21T11:00:14.440Z,35.42
2023-08-21T11:02:45.489Z,35.06
2023-08-21T11:05:14.387Z,34.76
2023-08-21T11:07:46.686Z,34.78
2023-08-21T11:10:17.754Z,33.01
2023-08-21T11:13:03.311Z,34.26
2023-08-21T11:15:30.712Z,32.83
2023-08-21T11:18:01.113Z,33.09
2023-08-21T11:20:33.553Z,31.57
2023-08-21T11:23:07.783Z,30.63
2023-08-21T11:25:36.195Z,31.88
2023-08-21T11:28:04.001Z,33.08
2023-08-21T11:30:33.876Z,33.13
2023-08-21T11:33:28.439Z,30.85
2023-08-21T11:35:58.309Z,32.58
2023-08-21T11:38:27.279Z,32.02
2023-08-21T11:41:03.748Z,32.67
2023-08-21T11:43:41.563Z,32.50
2023-08-21T11:46:11.898Z,31.79
2023-08-21T11:48:40.891Z,31.59
2023-08-21T11:51:10.679Z,31.29
2023-08-21T11:53:42.940Z,29.31
2023-08-21T11:56:18.178Z,31.78
2023-08-21T11:58:47.401Z,32.36
2023-08-21T12:01:23.986Z,30.78
2023-08-21T12:03:57.748Z,30.46
2023-08-21T12:06:26.644Z,31.00
2023-08-21T12:08:53.979Z,30.89
2023-08-21T12:11:22.079Z,27.65
2023-08-21T12:13:48.907Z,27.88
2023-08-21T12:16:15.772Z,29.05
2023-08-21T12:18:42.657Z,29.08
2023-08-21T12:21:09.484Z,29.26
2023-08-21T12:23:36.341Z,28.05
2023-08-21T12:26:03.208Z,29.17
2023-08-21T12:28:31.658Z,28.38
2023-08-21T12:30:58.497Z,26.49
2023-08-21T12:33:25.448Z,29.01
2023-08-21T12:35:52.838Z,30.11
2023-08-21T12:38:21.651Z,28.88
2023-08-21T12:40:49.115Z,28.79
2023-08-21T12:43:16.018Z,29.21
2023-08-21T12:45:43.092Z,29.21
2023-08-21T12:48:10.137Z,28.36
2023-08-21T12:50:37.102Z,28.91
2023-08-21T12:53:04.213Z,29.32
2023-08-21T12:55:31.518Z,29.92
2023-08-21T12:57:58.543Z,27.83
2023-08-21T13:00:25.533Z,27.95
2023-08-21T13:02:52.735Z,27.72
2023-08-21T13:05:19.944Z,28.21
2023-08-21T13:07:46.840Z,28.64
2023-08-21T13:10:14.631Z,28.26
2023-08-21T13:12:41.899Z,27.31
2023-08-21T13:15:09.518Z,28.18
2023-08-21T13:17:37.162Z,29.76
2023-08-21T13:20:05.309Z,29.36
2023-08-21T13:22:50.012Z,28.37
2023-08-21T13:25:19.205Z,28.14
2023-08-21T13:27:46.132Z,28.61
2023-08-21T13:30:14.384Z,28.54
2023-08-21T13:32:41.353Z,26.92
2023-08-21T13:35:12.333Z,27.15
2023-08-21T13:37:40.660Z,26.71
2023-08-21T13:40:13.942Z,28.10
2023-08-21T13:42:46.390Z,27.88
2023-08-21T13:45:15.863Z,27.92
2023-08-21T13:47:46.190Z,27.55
2023-08-21T13:50:13.317Z,27.70
2023-08-21T13:52:42.671Z,28.97
2023-08-21T13:55:11.313Z,27.61
2023-08-21T13:57:39.190Z,28.50
2023-08-21T14:00:09.353Z,26.99
2023-08-21T14:02:36.521Z,28.45
2023-08-21T14:05:05.678Z,26.79
2023-08-21T14:07:33.512Z,27.48
2023-08-21T14:10:01.234Z,27.39
2023-08-21T14:12:31.644Z,27.28
2023-08-21T14:15:00.710Z,27.50
2023-08-21T14:17:28.696Z,25.44
2023-08-21T14:19:56.442Z,24.63
2023-08-21T14:22:23.742Z,24.98
2023-08-21T14:24:50.854Z,24.68
2023-08-21T14:27:17.732Z,24.38
2023-08-21T14:29:45.167Z,23.11
2023-08-21T14:32:14.022Z,23.28
2023-08-21T14:34:40.950Z,22.80
2023-08-21T14:37:08.109Z,22.56
2023-08-21T14:39:35.097Z,23.06
2023-08-21T14:42:02.503Z,22.93
2023-08-21T14:44:29.664Z,23.16
2023-08-21T14:47:00.765Z,21.59
2023-08-21T14:49:29.565Z,23.03
2023-08-21T14:51:56.438Z,22.99
2023-08-21T14:54:23.325Z,24.00
2023-08-21T14:56:50.473Z,23.38
2023-08-21T14:59:17.896Z,23.78
2023-08-21T15:01:44.889Z,23.51
2023-08-21T15:04:11.861Z,22.95
2023-08-21T15:06:41.554Z,23.73
2023-08-21T15:09:09.333Z,23.26
2023-08-21T15:11:36.457Z,22.81
2023-08-21T15:14:04.829Z,22.25
2023-08-21T15:16:32.261Z,21.57
2023-08-21T15:18:59.898Z,21.58
2023-08-21T15:21:26.979Z,22.04
2023-08-21T15:23:53.963Z,21.72
2023-08-21T15:26:21.703Z,22.90
2023-08-21T15:28:50.991Z,21.76
2023-08-21T15:31:20.385Z,24.09
2023-08-21T15:33:48.734Z,24.16
2023-08-21T15:36:15.950Z,24.18
2023-08-21T15:38:42.792Z,26.94
2023-08-21T15:41:09.639Z,29.27
2023-08-21T15:43:36.829Z,30.87
2023-08-21T15:46:06.881Z,29.79
2023-08-21T15:48:34.555Z,30.79
2023-08-21T15:51:01.474Z,32.61
2023-08-21T15:53:28.339Z,32.73
2023-08-21T15:55:55.182Z,32.39
2023-08-21T15:58:22.110Z,33.06
2023-08-21T16:00:49.026Z,33.19
2023-08-21T16:03:16.304Z,33.17
2023-08-21T16:05:43.309Z,33.14
2023-08-21T16:08:10.169Z,34.64
2023-08-21T16:10:37.985Z,34.56
2023-08-21T16:13:05.256Z,35.97
2023-08-21T16:15:32.208Z,34.65
2023-08-21T16:17:59.192Z,35.81
2023-08-21T16:20:28.767Z,35.92
2023-08-21T16:22:56.407Z,36.94
2023-08-21T16:25:23.601Z,35.50
2023-08-21T16:27:50.593Z,36.81
2023-08-21T16:30:17.754Z,36.96
2023-08-21T16:32:44.799Z,37.12
2023-08-21T16:35:11.957Z,36.70
2023-08-21T16:37:38.891Z,35.43
2023-08-21T16:40:09.442Z,35.73
2023-08-21T16:42:36.756Z,36.17
2023-08-21T16:45:04.814Z,36.46
2023-08-21T16:47:31.870Z,36.25
2023-08-21T16:50:01.205Z,37.06
2023-08-21T16:52:29.908Z,38.17
2023-08-21T16:54:58.131Z,38.74
2023-08-21T16:57:25.182Z,38.33
2023-08-21T16:59:52.444Z,39.56
2023-08-21T17:02:22.512Z,40.24
2023-08-21T17:04:49.959Z,40.06
2023-08-21T17:07:18.776Z,40.81
2023-08-21T17:09:47.310Z,41.29
2023-08-21T17:12:15.531Z,41.52
2023-08-21T17:14:42.457Z,42.50
2023-08-21T17:17:09.527Z,41.88
2023-08-21T17:19:36.400Z,42.42
2023-08-21T17:22:03.283Z,42.41
2023-08-21T17:24:30.478Z,42.31
2023-08-21T17:27:01.341Z,43.35
2023-08-21T17:29:28.808Z,44.22
2023-08-21T17:31:55.854Z,44.88
2023-08-21T17:34:22.834Z,44.49
2023-08-21T17:36:52.402Z,44.25
2023-08-21T17:39:19.377Z,43.80
2023-08-21T17:41:46.278Z,43.81
2023-08-21T17:44:13.240Z,44.95
2023-08-21T17:46:40.107Z,45.20
2023-08-21T17:49:07.320Z,45.96
2023-08-21T17:51:34.353Z,46.06
2023-08-21T17:54:01.228Z,46.49
2023-08-21T17:56:28.085Z,47.00
2023-08-21T17:58:54.974Z,47.49
2023-08-21T18:01:21.923Z,47.76
2023-08-21T18:03:48.942Z,48.97
2023-08-21T18:06:16.529Z,48.99
2023-08-21T18:08:43.452Z,50.14
2023-08-21T18:11:10.391Z,50.79
2023-08-21T18:13:37.361Z,51.12
2023-08-21T18:16:04.441Z,51.81
2023-08-21T18:18:31.429Z,52.28
2023-08-21T18:20:58.489Z,52.32
2023-08-21T18:23:30.760Z,53.00
2023-08-21T18:25:58.844Z,53.98
2023-08-21T18:28:26.964Z,55.50
2023-08-21T18:30:59.279Z,56.93
2023-08-21T18:33:27.574Z,58.30
2023-08-21T18:35:55.351Z,58.35
2023-08-21T18:38:22.312Z,59.63
2023-08-21T18:40:49.910Z,60.61
2023-08-21T18:43:19.343Z,60.69
2023-08-21T18:45:47.306Z,60.66
2023-08-21T18:48:15.158Z,60.20
2023-08-21T18:50:44.559Z,59.88
2023-08-21T18:53:16.653Z,59.64
2023-08-21T18:55:46.598Z,59.88
2023-08-21T18:58:14.661Z,60.38
2023-08-21T19:00:41.791Z,60.34
2023-08-21T19:03:10.987Z,60.37
2023-08-21T19:05:39.093Z,60.36
2023-08-21T19:08:06.493Z,59.85
2023-08-21T19:10:33.561Z,60.18
2023-08-21T19:13:02.087Z,60.94
2023-08-21T19:15:30.121Z,59.72
2023-08-21T19:17:57.187Z,59.20
2023-08-21T19:20:24.121Z,59.18
2023-08-21T19:22:53.531Z,58.97
2023-08-21T19:25:21.041Z,59.25
2023-08-21T19:27:47.925Z,58.76
2023-08-21T19:30:14.944Z,58.48
2023-08-21T19:32:43.700Z,58.39
2023-08-21T19:35:10.791Z,57.85
2023-08-21T19:37:38.007Z,57.35
2023-08-21T19:40:06.646Z,57.17
2023-08-21T19:42:33.820Z,57.07
2023-08-21T19:45:00.835Z,56.93
2023-08-21T19:47:27.797Z,56.77
2023-08-21T19:49:54.835Z,56.26
2023-08-21T19:52:21.767Z,56.19
2023-08-21T19:54:49.538Z,56.09
2023-08-21T19:57:16.526Z,55.72
2023-08-21T19:59:43.426Z,57.61
2023-08-21T20:02:10.291Z,58.31
2023-08-21T20:04:37.221Z,57.63
2023-08-21T20:07:05.373Z,57.45
2023-08-21T20:09:32.363Z,57.91
2023-08-21T20:11:59.213Z,58.89
2023-08-21T20:14:26.081Z,59.60
2023-08-21T20:16:52.993Z,60.87
2023-08-21T20:19:20.135Z,61.42
2023-08-21T20:21:47.208Z,61.34
2023-08-21T20:24:14.193Z,61.32
2023-08-21T20:26:41.043Z,61.76
2023-08-21T20:29:09.796Z,61.84
2023-08-21T20:31:36.718Z,61.59
2023-08-21T20:34:03.699Z,62.11
2023-08-21T20:36:31.327Z,61.96
2023-08-21T20:38:58.223Z,62.38
2023-08-21T20:41:25.073Z,62.88
2023-08-21T20:43:51.947Z,62.92
2023-08-21T20:46:18.932Z,63.63
2023-08-21T20:48:45.804Z,63.41
2023-08-21T20:51:14.364Z,63.13
2023-08-21T20:53:41.236Z,63.51
2023-08-21T20:56:08.403Z,63.58
2023-08-21T20:58:35.301Z,63.81
2023-08-21T21:01:02.203Z,64.02
2023-08-21T21:03:29.116Z,63.73
2023-08-21T21:05:56.025Z,63.92
2023-08-21T21:08:22.842Z,65.46
2023-08-21T21:10:49.690Z,66.02
2023-08-21T21:13:16.538Z,66.02
2023-08-21T21:15:43.403Z,65.75
2023-08-21T21:18:10.343Z,66.58
2023-08-21T21:20:37.376Z,67.28
2023-08-21T21:23:04.499Z,68.09
2023-08-21T21:25:31.458Z,68.25
2023-08-21T21:27:58.310Z,69.01
2023-08-21T21:30:26.219Z,69.14
2023-08-21T21:32:53.133Z,68.90
2023-08-21T21:35:19.998Z,68.99
2023-08-21T21:37:46.852Z,69.49
2023-08-21T21:40:13.762Z,69.60
2023-08-21T21:42:40.693Z,69.97
2023-08-21T21:45:08.396Z,69.65
2023-08-21T21:47:35.359Z,69.48
2023-08-21T21:50:02.275Z,69.63
2023-08-21T21:52:29.165Z,69.50
2023-08-21T21:54:56.043Z,69.72
2023-08-21T21:57:24.587Z,70.23
2023-08-21T21:59:52.267Z,69.76
2023-08-21T22:02:19.264Z,68.84
2023-08-21T22:04:46.257Z,68.62
2023-08-21T22:07:13.255Z,68.77
2023-08-21T22:09:44.204Z,68.89
2023-08-21T22:12:14.225Z,68.94
2023-08-21T22:14:41.265Z,69.19
2023-08-21T22:17:08.367Z,69.87
2023-08-21T22:19:35.453Z,69.73
2023-08-21T22:22:02.370Z,69.44
2023-08-21T22:24:29.661Z,69.94
2023-08-21T22:26:56.612Z,70.86
2023-08-21T22:29:23.590Z,71.44
2023-08-21T22:31:50.723Z,70.90
2023-08-21T22:34:17.648Z,70.60
2023-08-21T22:36:44.561Z,70.72
2023-08-21T22:39:11.577Z,70.66
2023-08-21T22:41:38.447Z,70.47
2023-08-21T22:44:05.275Z,70.50
2023-08-21T22:46:32.206Z,69.92
2023-08-21T22:48:59.137Z,70.00
2023-08-21T22:51:25.998Z,70.64
2023-08-21T22:53:52.818Z,70.63
2023-08-21T22:56:19.685Z,70.49
2023-08-21T22:58:46.558Z,70.34
2023-08-21T23:01:13.554Z,70.89
2023-08-21T23:03:40.728Z,71.28
2023-08-21T23:06:08.368Z,71.19
2023-08-21T23:08:35.326Z,70.84
2023-08-21T23:11:02.201Z,70.58
2023-08-21T23:13:29.949Z,70.78
2023-08-21T23:15:56.950Z,71.03
2023-08-21T23:18:23.982Z,71.00
2023-08-21T23:21:06.242Z,71.04
2023-08-21T23:23:34.190Z,70.95
2023-08-21T23:26:01.876Z,71.82
2023-08-21T23:28:30.458Z,71.53
2023-08-21T23:30:57.421Z,71.13
2023-08-21T23:33:24.745Z,70.58
2023-08-21T23:35:51.853Z,70.36
2023-08-21T23:38:19.201Z,69.95
2023-08-21T23:40:46.195Z,69.60
2023-08-21T23:43:13.075Z,69.93
2023-08-21T23:45:40.316Z,69.11
2023-08-21T23:48:07.508Z,69.22
2023-08-21T23:50:34.500Z,69.18
2023-08-21T23:53:08.208Z,68.93
2023-08-21T23:55:38.117Z,68.83
2023-08-21T23:58:05.900Z,68.72
